createdAt,value
2023-04-24T00:00:03.574Z,3.80
2023-04-24T00:01:03.558Z,3.20
2023-04-24T00:02:03.601Z,3.00
2023-04-24T00:03:03.591Z,3.70
2023-04-24T00:04:03.886Z,3.40
2023-04-24T00:05:03.541Z,3.00
2023-04-24T00:06:03.518Z,3.00
2023-04-24T00:07:03.567Z,3.70
2023-04-24T00:08:03.472Z,4.80
2023-04-24T00:09:03.486Z,4.10
2023-04-24T00:10:03.515Z,2.70
2023-04-24T00:11:03.451Z,3.50
2023-04-24T00:12:03.425Z,3.40
2023-04-24T00:13:03.435Z,2.70
2023-04-24T00:14:03.409Z,4.90
2023-04-24T00:15:03.402Z,2.60
2023-04-24T00:16:03.422Z,3.40
2023-04-24T00:17:03.489Z,3.50
2023-04-24T00:18:03.467Z,3.40
2023-04-24T00:19:03.375Z,2.50
2023-04-24T00:20:03.341Z,3.70
2023-04-24T00:21:03.335Z,3.90
2023-04-24T00:22:03.339Z,4.80
2023-04-24T00:23:03.314Z,3.00
2023-04-24T00:24:03.304Z,2.40
2023-04-24T00:25:03.288Z,3.20
2023-04-24T00:26:03.274Z,2.60
2023-04-24T00:27:03.295Z,4.20
2023-04-24T00:28:03.252Z,4.80
2023-04-24T00:29:03.241Z,4.60
2023-04-24T00:30:03.229Z,3.80
2023-04-24T00:31:03.223Z,3.20
2023-04-24T00:32:03.233Z,3.20
2023-04-24T00:33:03.246Z,3.30
2023-04-24T00:34:03.191Z,3.40
2023-04-24T00:35:03.183Z,2.10
2023-04-24T00:36:03.164Z,2.20
2023-04-24T00:37:03.159Z,2.90
2023-04-24T00:38:03.139Z,3.30
2023-04-24T00:39:03.154Z,3.20
2023-04-24T00:40:03.146Z,2.90
2023-04-24T00:41:03.109Z,3.80
2023-04-24T00:42:03.099Z,4.50
2023-04-24T00:43:03.091Z,3.80
2023-04-24T00:44:03.078Z,3.30
2023-04-24T00:45:03.121Z,3.10
2023-04-24T00:46:03.118Z,2.70
2023-04-24T00:47:03.076Z,3.10
2023-04-24T00:48:03.052Z,3.70
2023-04-24T00:49:03.021Z,2.90
2023-04-24T00:50:03.011Z,2.60
2023-04-24T00:51:03.029Z,3.80
2023-04-24T00:52:03.000Z,3.30
2023-04-24T00:53:02.979Z,3.80
2023-04-24T00:54:02.955Z,3.80
2023-04-24T00:55:02.952Z,2.80
2023-04-24T00:56:02.936Z,2.70
2023-04-24T00:57:02.963Z,3.30
2023-04-24T00:58:02.930Z,2.90
2023-04-24T00:59:02.923Z,3.90
2023-04-24T01:00:02.893Z,3.50
2023-04-24T01:01:02.928Z,3.60
2023-04-24T01:02:02.879Z,4.10
2023-04-24T01:03:03.040Z,2.10
2023-04-24T01:04:03.125Z,2.70
2023-04-24T01:05:02.851Z,2.10
2023-04-24T01:06:02.822Z,2.50
2023-04-24T01:07:02.817Z,3.00
2023-04-24T01:08:02.806Z,2.80
2023-04-24T01:09:03.003Z,3.60
2023-04-24T01:10:02.782Z,4.00
2023-04-24T01:11:02.768Z,3.50
2023-04-24T01:12:02.778Z,2.30
2023-04-24T01:13:02.761Z,2.70
2023-04-24T01:14:02.772Z,2.20
2023-04-24T01:15:02.758Z,2.60
2023-04-24T01:16:02.747Z,2.10
2023-04-24T01:17:02.711Z,3.30
2023-04-24T01:18:02.753Z,2.60
2023-04-24T01:19:02.672Z,2.70
2023-04-24T01:20:02.686Z,2.30
2023-04-24T01:21:02.689Z,3.30
2023-04-24T01:22:02.657Z,2.80
2023-04-24T01:23:02.636Z,3.90
2023-04-24T01:24:02.635Z,3.60
2023-04-24T01:25:02.621Z,2.00
2023-04-24T01:26:02.610Z,2.70
2023-04-24T01:27:02.622Z,3.00
2023-04-24T01:28:02.580Z,2.70
2023-04-24T01:29:02.565Z,3.30
2023-04-24T01:30:02.557Z,3.90
2023-04-24T01:31:02.563Z,2.40
2023-04-24T01:32:02.544Z,4.00
2023-04-24T01:33:02.579Z,3.60
2023-04-24T01:34:02.511Z,2.30
2023-04-24T01:35:02.508Z,3.60
2023-04-24T01:36:02.502Z,3.20
2023-04-24T01:37:02.491Z,4.90
2023-04-24T01:38:02.472Z,5.00
2023-04-24T01:39:02.479Z,3.80
2023-04-24T01:40:02.468Z,4.70
2023-04-24T01:41:02.436Z,5.30
2023-04-24T01:42:02.438Z,4.00
2023-04-24T01:43:02.406Z,4.10
2023-04-24T01:44:02.402Z,3.90
2023-04-24T01:45:02.408Z,3.90
2023-04-24T01:46:02.378Z,5.10
2023-04-24T01:47:02.420Z,5.10
2023-04-24T01:48:02.396Z,5.20
2023-04-24T01:49:02.341Z,4.70
2023-04-24T01:50:02.342Z,4.40
2023-04-24T01:51:02.340Z,4.70
2023-04-24T01:52:02.311Z,5.60
2023-04-24T01:53:02.302Z,4.30
2023-04-24T01:54:02.294Z,4.10
2023-04-24T01:55:02.296Z,4.20
2023-04-24T01:56:02.260Z,4.20
2023-04-24T01:57:02.289Z,4.20
2023-04-24T01:58:02.237Z,3.80
2023-04-24T01:59:02.241Z,3.30
2023-04-24T02:00:02.252Z,4.60
2023-04-24T02:01:02.235Z,4.70
2023-04-24T02:02:02.257Z,5.00
2023-04-24T02:03:02.334Z,4.30
2023-04-24T02:04:02.285Z,3.60
2023-04-24T02:05:02.163Z,3.50
2023-04-24T02:06:02.153Z,5.40
2023-04-24T02:07:02.140Z,6.10
2023-04-24T02:08:02.129Z,4.00
2023-04-24T02:09:02.324Z,5.30
2023-04-24T02:10:02.147Z,4.00
2023-04-24T02:11:02.098Z,3.90
2023-04-24T02:12:02.084Z,6.90
2023-04-24T02:13:02.082Z,6.20
2023-04-24T02:14:02.086Z,4.10
2023-04-24T02:15:02.083Z,4.60
2023-04-24T02:16:02.057Z,4.80
2023-04-24T02:17:02.024Z,4.70
2023-04-24T02:18:02.105Z,4.60
2023-04-24T02:19:02.035Z,5.50
2023-04-24T02:20:02.021Z,4.30
2023-04-24T02:21:02.025Z,4.70
2023-04-24T02:22:01.972Z,5.50
2023-04-24T02:23:01.997Z,4.70
2023-04-24T02:24:01.976Z,4.50
2023-04-24T02:25:01.949Z,5.80
2023-04-24T02:26:01.970Z,4.40
2023-04-24T02:27:01.924Z,5.10
2023-04-24T02:28:01.908Z,4.80
2023-04-24T02:29:01.901Z,6.10
2023-04-24T02:30:01.867Z,4.80
2023-04-24T02:31:01.886Z,5.50
2023-04-24T02:32:01.935Z,5.70
2023-04-24T02:33:01.848Z,7.20
2023-04-24T02:34:01.840Z,4.60
2023-04-24T02:35:01.851Z,6.20
2023-04-24T02:36:01.860Z,4.60
2023-04-24T02:37:01.808Z,4.50
2023-04-24T02:38:01.804Z,5.10
2023-04-24T02:39:01.790Z,5.60
2023-04-24T02:40:01.761Z,4.70
2023-04-24T02:41:01.768Z,4.90
2023-04-24T02:42:01.772Z,5.00
2023-04-24T02:43:01.734Z,5.20
2023-04-24T02:44:01.714Z,6.30
2023-04-24T02:45:01.707Z,6.40
2023-04-24T02:46:01.842Z,6.30
2023-04-24T02:47:01.685Z,5.70
2023-04-24T02:48:01.747Z,6.00
2023-04-24T02:49:01.721Z,6.70
2023-04-24T02:50:01.648Z,6.00
2023-04-24T02:51:01.657Z,5.90
2023-04-24T02:52:01.630Z,6.50
2023-04-24T02:53:01.621Z,5.70
2023-04-24T02:54:01.630Z,7.40
2023-04-24T02:55:01.615Z,7.50
2023-04-24T02:56:01.581Z,8.00
2023-04-24T02:57:01.578Z,7.80
2023-04-24T02:58:01.550Z,8.70
2023-04-24T02:59:01.549Z,6.60
2023-04-24T03:00:01.550Z,12.80
2023-04-24T03:01:01.549Z,8.50
2023-04-24T03:02:01.520Z,10.50
2023-04-24T03:03:01.785Z,8.50
2023-04-24T03:04:01.796Z,9.80
2023-04-24T03:05:01.509Z,11.20
2023-04-24T03:06:01.492Z,10.60
2023-04-24T03:07:01.457Z,10.30
2023-04-24T03:08:01.445Z,13.20
2023-04-24T03:09:01.439Z,12.00
2023-04-24T03:10:01.430Z,12.10
2023-04-24T03:11:01.418Z,15.20
2023-04-24T03:12:01.428Z,13.20
2023-04-24T03:13:01.393Z,12.30
2023-04-24T03:14:01.390Z,13.30
2023-04-24T03:15:01.379Z,13.70
2023-04-24T03:16:01.382Z,13.40
2023-04-24T03:17:01.350Z,14.10
2023-04-24T03:18:01.391Z,14.80
2023-04-24T03:19:01.336Z,16.40
2023-04-24T03:20:01.312Z,15.90
2023-04-24T03:21:01.307Z,16.40
2023-04-24T03:22:01.290Z,17.10
2023-04-24T03:23:01.286Z,16.70
2023-04-24T03:24:01.283Z,16.90
2023-04-24T03:25:01.259Z,19.40
2023-04-24T03:26:01.263Z,16.80
2023-04-24T03:27:01.247Z,16.50
2023-04-24T03:28:01.215Z,15.70
2023-04-24T03:29:01.216Z,16.70
2023-04-24T03:30:01.210Z,16.20
2023-04-24T03:31:01.260Z,17.90
2023-04-24T03:32:01.184Z,15.20
2023-04-24T03:33:01.223Z,17.80
2023-04-24T03:34:01.154Z,16.50
2023-04-24T03:35:01.171Z,16.60
2023-04-24T03:36:01.144Z,17.80
2023-04-24T03:37:01.131Z,16.70
2023-04-24T03:38:01.104Z,16.30
2023-04-24T03:39:01.094Z,17.40
2023-04-24T03:40:01.101Z,17.50
2023-04-24T03:41:01.119Z,17.50
2023-04-24T03:42:01.087Z,18.80
2023-04-24T03:43:01.060Z,17.70
2023-04-24T03:44:01.033Z,18.30
2023-04-24T03:45:01.050Z,18.40
2023-04-24T03:46:01.041Z,21.60
2023-04-24T03:47:01.013Z,17.30
2023-04-24T03:48:01.037Z,18.70
2023-04-24T03:49:00.990Z,21.60
2023-04-24T03:50:00.970Z,18.90
2023-04-24T03:51:00.969Z,21.80
2023-04-24T03:52:00.941Z,20.30
2023-04-24T03:53:00.937Z,20.40
2023-04-24T03:54:00.957Z,21.50
2023-04-24T03:55:00.925Z,21.70
2023-04-24T03:56:00.899Z,19.60
2023-04-24T03:57:00.893Z,19.40
2023-04-24T03:58:00.875Z,20.70
2023-04-24T03:59:00.871Z,20.80
2023-04-24T04:00:00.872Z,20.90
2023-04-24T04:01:00.847Z,20.10
2023-04-24T04:02:00.893Z,22.10
2023-04-24T04:03:01.125Z,21.70
2023-04-24T04:04:00.891Z,20.10
2023-04-24T04:05:00.991Z,21.40
2023-04-24T04:06:00.807Z,24.30
2023-04-24T04:07:00.774Z,22.80
2023-04-24T04:08:00.775Z,22.10
2023-04-24T04:09:00.768Z,22.10
2023-04-24T04:10:00.743Z,21.80
2023-04-24T04:11:00.975Z,22.70
2023-04-24T04:12:00.718Z,22.20
2023-04-24T04:13:00.713Z,23.20
2023-04-24T04:14:00.709Z,24.40
2023-04-24T04:15:00.698Z,22.90
2023-04-24T04:16:00.812Z,23.10
2023-04-24T04:17:01.045Z,23.50
2023-04-24T04:18:00.660Z,24.20
2023-04-24T04:19:00.654Z,25.40
2023-04-24T04:20:00.621Z,24.70
2023-04-24T04:21:00.620Z,25.10
2023-04-24T04:22:00.598Z,24.10
2023-04-24T04:23:00.621Z,24.10
2023-04-24T04:24:00.589Z,23.20
2023-04-24T04:25:00.566Z,21.60
2023-04-24T04:26:00.557Z,23.90
2023-04-24T04:27:00.550Z,22.50
2023-04-24T04:28:00.561Z,25.30
2023-04-24T04:29:00.545Z,25.40
2023-04-24T04:30:00.516Z,26.90
2023-04-24T04:31:00.514Z,24.90
2023-04-24T04:32:00.532Z,23.30
2023-04-24T04:33:00.572Z,26.70
2023-04-24T04:34:00.464Z,24.20
2023-04-24T04:35:00.459Z,28.80
2023-04-24T04:36:00.969Z,28.70
2023-04-24T04:37:00.455Z,23.90
2023-04-24T04:38:00.443Z,26.20
2023-04-24T04:39:00.418Z,25.60
2023-04-24T04:40:00.397Z,26.10
2023-04-24T04:41:00.398Z,27.40
2023-04-24T04:42:00.381Z,28.80
2023-04-24T04:43:00.384Z,29.10
2023-04-24T04:44:00.359Z,29.30
2023-04-24T04:45:00.346Z,27.90
2023-04-24T04:46:00.362Z,28.80
2023-04-24T04:47:00.324Z,27.60
2023-04-24T04:48:00.386Z,27.80
2023-04-24T04:49:00.301Z,30.20
2023-04-24T04:50:00.281Z,27.30
2023-04-24T04:51:00.285Z,28.50
2023-04-24T04:52:00.262Z,27.30
2023-04-24T04:53:00.281Z,29.40
2023-04-24T04:54:00.242Z,29.30
2023-04-24T04:55:00.263Z,29.00
2023-04-24T04:56:00.220Z,30.60
2023-04-24T04:57:00.365Z,28.30
2023-04-24T04:58:00.217Z,29.80
2023-04-24T04:59:00.217Z,29.50
2023-04-24T05:00:00.187Z,27.50
2023-04-24T05:01:00.190Z,27.90
2023-04-24T05:02:00.152Z,30.70
2023-04-24T05:03:12.624Z,31.00
2023-04-24T05:04:00.369Z,28.40
2023-04-24T05:05:00.243Z,31.50
2023-04-24T05:06:00.122Z,31.20
2023-04-24T05:07:00.117Z,28.50
2023-04-24T05:08:00.160Z,28.70
2023-04-24T05:09:00.081Z,32.80
2023-04-24T05:10:00.066Z,33.50
2023-04-24T05:11:00.057Z,29.60
2023-04-24T05:12:00.032Z,29.90
2023-04-24T05:13:00.050Z,31.60
2023-04-24T05:14:00.018Z,29.60
2023-04-24T05:15:00.014Z,29.80
2023-04-24T05:15:59.993Z,27.90
2023-04-24T05:17:00.005Z,31.90
2023-04-24T05:18:00.001Z,31.80
2023-04-24T05:18:59.961Z,29.80
2023-04-24T05:19:59.955Z,33.00
2023-04-24T05:20:59.949Z,30.70
2023-04-24T05:21:59.928Z,31.10
2023-04-24T05:22:59.938Z,32.60
2023-04-24T05:23:59.902Z,30.60
2023-04-24T05:24:59.906Z,33.80
2023-04-24T05:25:59.880Z,34.70
2023-04-24T05:26:59.870Z,32.70
2023-04-24T05:27:59.893Z,35.20
2023-04-24T05:28:59.857Z,33.10
2023-04-24T05:29:59.836Z,31.00
2023-04-24T05:30:59.862Z,30.80
2023-04-24T05:31:59.826Z,30.50
2023-04-24T05:33:01.900Z,30.70
2023-04-24T05:33:59.788Z,30.20
2023-04-24T05:34:59.778Z,29.90
2023-04-24T05:35:59.769Z,34.40
2023-04-24T05:36:59.763Z,33.90
2023-04-24T05:37:59.760Z,34.40
2023-04-24T05:38:59.769Z,32.90
2023-04-24T05:39:59.715Z,31.60
2023-04-24T05:40:59.719Z,30.30
2023-04-24T05:41:59.697Z,35.30
2023-04-24T05:42:59.709Z,33.00
2023-04-24T05:43:59.681Z,32.60
2023-04-24T05:44:59.665Z,31.60
2023-04-24T05:45:59.672Z,32.10
2023-04-24T05:46:59.644Z,32.60
2023-04-24T05:47:59.685Z,32.00
2023-04-24T05:48:59.636Z,32.20
2023-04-24T05:49:59.639Z,33.40
2023-04-24T05:50:59.596Z,33.80
2023-04-24T05:51:59.584Z,30.30
2023-04-24T05:52:59.591Z,29.60
2023-04-24T05:53:59.578Z,33.10
2023-04-24T05:54:59.611Z,31.40
2023-04-24T05:55:59.542Z,31.90
2023-04-24T05:56:59.530Z,35.20
2023-04-24T05:57:59.530Z,32.00
2023-04-24T05:58:59.512Z,30.70
2023-04-24T05:59:59.494Z,29.20
2023-04-24T06:00:59.497Z,30.60
2023-04-24T06:01:59.552Z,32.80
2023-04-24T06:02:59.909Z,33.00
2023-04-24T06:03:59.606Z,31.40
2023-04-24T06:04:59.499Z,29.30
2023-04-24T06:05:59.442Z,30.30
2023-04-24T06:06:59.411Z,31.70
2023-04-24T06:07:59.425Z,30.20
2023-04-24T06:08:59.388Z,28.60
2023-04-24T06:09:59.384Z,31.70
2023-04-24T06:10:59.390Z,32.20
2023-04-24T06:11:59.361Z,28.20
2023-04-24T06:12:59.361Z,29.40
2023-04-24T06:13:59.343Z,30.80
2023-04-24T06:14:59.329Z,27.10
2023-04-24T06:15:59.335Z,28.80
2023-04-24T06:16:59.420Z,26.80
2023-04-24T06:17:59.394Z,27.30
2023-04-24T06:18:59.337Z,27.40
2023-04-24T06:19:59.265Z,25.80
2023-04-24T06:20:59.253Z,26.20
2023-04-24T06:21:59.247Z,25.70
2023-04-24T06:22:59.248Z,27.90
2023-04-24T06:23:59.316Z,26.40
2023-04-24T06:24:59.207Z,27.00
2023-04-24T06:25:59.213Z,26.60
2023-04-24T06:26:59.189Z,28.60
2023-04-24T06:27:59.212Z,26.20
2023-04-24T06:28:59.159Z,28.20
2023-04-24T06:29:59.177Z,25.60
2023-04-24T06:30:59.145Z,26.50
2023-04-24T06:31:59.198Z,26.20
2023-04-24T06:33:09.181Z,27.60
2023-04-24T06:33:59.137Z,25.70
2023-04-24T06:34:59.658Z,24.30
2023-04-24T06:35:59.095Z,29.00
2023-04-24T06:36:59.099Z,26.00
2023-04-24T06:37:59.080Z,27.60
2023-04-24T06:38:59.053Z,26.20
2023-04-24T06:39:59.039Z,27.50
2023-04-24T06:40:59.149Z,27.10
2023-04-24T06:41:59.017Z,27.50
2023-04-24T06:42:59.030Z,28.60
2023-04-24T06:43:59.009Z,26.20
2023-04-24T06:44:58.975Z,24.60
2023-04-24T06:45:59.012Z,24.90
2023-04-24T06:46:58.962Z,26.80
2023-04-24T06:47:58.984Z,25.60
2023-04-24T06:48:58.938Z,27.40
2023-04-24T06:49:58.922Z,25.80
2023-04-24T06:50:58.913Z,27.40
2023-04-24T06:51:58.909Z,24.80
2023-04-24T06:52:58.897Z,25.90
2023-04-24T06:53:58.885Z,24.30
2023-04-24T06:54:58.867Z,23.80
2023-04-24T06:55:58.858Z,24.00
2023-04-24T06:56:58.846Z,25.90
2023-04-24T06:57:58.853Z,26.20
2023-04-24T06:58:58.818Z,26.40
2023-04-24T06:59:58.943Z,24.80
2023-04-24T07:00:58.835Z,25.10
2023-04-24T07:01:58.825Z,23.90
2023-04-24T07:02:58.940Z,23.90
2023-04-24T07:03:58.920Z,24.90
2023-04-24T07:04:58.760Z,23.10
2023-04-24T07:05:58.755Z,22.40
2023-04-24T07:06:58.731Z,22.10
2023-04-24T07:07:58.886Z,22.20
2023-04-24T07:08:58.736Z,21.80
2023-04-24T07:09:58.701Z,23.70
2023-04-24T07:10:58.689Z,24.60
2023-04-24T07:11:58.677Z,22.10
2023-04-24T07:12:58.787Z,20.70
2023-04-24T07:13:58.657Z,21.40
2023-04-24T07:14:58.646Z,22.00
2023-04-24T07:15:58.652Z,21.70
2023-04-24T07:16:58.621Z,21.80
2023-04-24T07:17:58.671Z,22.80
2023-04-24T07:18:58.593Z,22.50
2023-04-24T07:19:58.597Z,22.40
2023-04-24T07:20:58.570Z,23.30
2023-04-24T07:21:58.573Z,23.50
2023-04-24T07:22:58.565Z,23.50
2023-04-24T07:23:58.541Z,24.40
2023-04-24T07:24:58.537Z,23.70
2023-04-24T07:25:58.546Z,24.10
2023-04-24T07:26:58.509Z,23.40
2023-04-24T07:27:58.514Z,23.10
2023-04-24T07:28:58.484Z,22.60
2023-04-24T07:29:58.476Z,25.10
2023-04-24T07:30:58.460Z,23.20
2023-04-24T07:31:58.478Z,22.10
2023-04-24T07:32:58.473Z,22.10
2023-04-24T07:33:58.427Z,23.60
2023-04-24T07:34:58.418Z,21.50
2023-04-24T07:35:58.409Z,21.60
2023-04-24T07:36:58.401Z,21.40
2023-04-24T07:37:58.409Z,22.90
2023-04-24T07:38:58.365Z,21.00
2023-04-24T07:39:58.364Z,21.90
2023-04-24T07:40:58.357Z,20.90
2023-04-24T07:41:58.338Z,21.40
2023-04-24T07:42:58.349Z,20.20
2023-04-24T07:43:58.314Z,21.60
2023-04-24T07:44:58.304Z,21.90
2023-04-24T07:45:58.350Z,20.70
2023-04-24T07:46:58.308Z,20.90
2023-04-24T07:47:58.322Z,21.60
2023-04-24T07:49:11.713Z,21.70
2023-04-24T07:49:58.403Z,21.00
2023-04-24T07:50:58.245Z,20.80
2023-04-24T07:51:58.224Z,20.00
2023-04-24T07:52:58.206Z,20.00
2023-04-24T07:53:58.219Z,20.00
2023-04-24T07:54:58.202Z,20.30
2023-04-24T07:55:58.185Z,19.30
2023-04-24T07:56:58.165Z,19.20
2023-04-24T07:57:58.152Z,19.90
2023-04-24T07:58:58.160Z,18.20
2023-04-24T07:59:58.133Z,19.00
2023-04-24T08:00:58.129Z,19.20
2023-04-24T08:01:58.130Z,18.10
2023-04-24T08:02:58.174Z,18.60
2023-04-24T08:03:58.308Z,19.20
2023-04-24T08:05:00.210Z,18.80
2023-04-24T08:05:58.249Z,17.50
2023-04-24T08:06:58.052Z,17.20
2023-04-24T08:07:58.047Z,16.30
2023-04-24T08:08:58.062Z,15.70
2023-04-24T08:09:58.029Z,14.80
2023-04-24T08:10:58.004Z,14.90
2023-04-24T08:11:58.005Z,16.00
2023-04-24T08:12:58.098Z,15.10
2023-04-24T08:13:57.999Z,15.00
2023-04-24T08:14:57.958Z,14.00
2023-04-24T08:15:57.967Z,15.00
2023-04-24T08:16:57.932Z,15.20
2023-04-24T08:17:59.093Z,14.50
2023-04-24T08:18:57.933Z,14.00
2023-04-24T08:19:57.921Z,14.40
2023-04-24T08:20:57.893Z,14.50
2023-04-24T08:21:57.881Z,13.30
2023-04-24T08:22:57.900Z,14.70
2023-04-24T08:23:57.880Z,14.10
2023-04-24T08:24:57.844Z,13.60
2023-04-24T08:25:57.831Z,12.90
2023-04-24T08:26:57.839Z,13.70
2023-04-24T08:27:57.811Z,12.20
2023-04-24T08:28:57.986Z,13.00
2023-04-24T08:29:57.797Z,13.20
2023-04-24T08:30:57.775Z,12.90
2023-04-24T08:31:57.836Z,13.00
2023-04-24T08:32:57.771Z,13.00
2023-04-24T08:33:57.770Z,12.60
2023-04-24T08:34:57.736Z,12.80
2023-04-24T08:35:57.724Z,12.80
2023-04-24T08:36:57.706Z,12.10
2023-04-24T08:37:57.695Z,14.40
2023-04-24T08:38:57.712Z,13.70
2023-04-24T08:39:57.697Z,13.40
2023-04-24T08:40:57.658Z,13.40
2023-04-24T08:41:57.668Z,13.40
2023-04-24T08:42:57.638Z,13.10
2023-04-24T08:43:57.646Z,12.20
2023-04-24T08:44:57.621Z,12.70
2023-04-24T08:45:57.774Z,12.40
2023-04-24T08:46:57.717Z,10.80
2023-04-24T08:47:57.601Z,11.80
2023-04-24T08:48:57.591Z,10.80
2023-04-24T08:49:57.565Z,11.40
2023-04-24T08:50:57.548Z,11.70
2023-04-24T08:51:57.542Z,11.20
2023-04-24T08:52:57.526Z,10.60
2023-04-24T08:53:57.531Z,12.10
2023-04-24T08:54:57.509Z,12.00
2023-04-24T08:55:57.500Z,11.60
2023-04-24T08:56:57.480Z,12.00
2023-04-24T08:57:57.481Z,11.10
2023-04-24T08:58:57.473Z,11.70
2023-04-24T08:59:57.454Z,12.10
2023-04-24T09:00:57.477Z,11.70
2023-04-24T09:01:57.436Z,11.70
2023-04-24T09:02:57.460Z,11.40
2023-04-24T09:03:57.768Z,11.90
2023-04-24T09:04:57.393Z,11.80
2023-04-24T09:05:57.411Z,12.60
2023-04-24T09:06:57.365Z,12.20
2023-04-24T09:07:57.362Z,12.00
2023-04-24T09:08:57.368Z,12.10
2023-04-24T09:09:57.343Z,11.90
2023-04-24T09:10:57.326Z,11.60
2023-04-24T09:11:57.316Z,11.30
2023-04-24T09:12:57.331Z,11.20
2023-04-24T09:13:57.319Z,11.40
2023-04-24T09:14:57.272Z,11.10
2023-04-24T09:15:57.266Z,10.60
2023-04-24T09:16:57.336Z,10.70
2023-04-24T09:17:57.284Z,10.20
2023-04-24T09:18:57.254Z,10.00
2023-04-24T09:19:57.224Z,9.10
2023-04-24T09:20:57.211Z,9.40
2023-04-24T09:21:57.211Z,10.10
2023-04-24T09:22:57.206Z,9.90
2023-04-24T09:23:57.205Z,10.50
2023-04-24T09:24:57.170Z,9.30
2023-04-24T09:25:57.193Z,9.60
2023-04-24T09:26:57.148Z,8.70
2023-04-24T09:27:57.135Z,8.70
2023-04-24T09:28:57.136Z,9.80
2023-04-24T09:29:57.129Z,8.60
2023-04-24T09:30:57.093Z,8.10
2023-04-24T09:31:57.266Z,9.60
2023-04-24T09:32:57.140Z,11.40
2023-04-24T09:33:58.524Z,9.40
2023-04-24T09:34:57.048Z,10.10
2023-04-24T09:35:57.065Z,8.90
2023-04-24T09:36:57.041Z,9.50
2023-04-24T09:37:57.035Z,10.20
2023-04-24T09:38:57.024Z,11.80
2023-04-24T09:39:56.998Z,12.30
2023-04-24T09:40:57.020Z,7.70
2023-04-24T09:41:56.976Z,9.80
2023-04-24T09:42:56.975Z,9.50
2023-04-24T09:43:56.962Z,12.60
2023-04-24T09:45:04.554Z,7.70
2023-04-24T09:45:58.106Z,8.00
2023-04-24T09:46:56.919Z,9.80
2023-04-24T09:47:56.956Z,10.10
2023-04-24T09:48:56.909Z,8.60
2023-04-24T09:49:56.893Z,9.10
2023-04-24T09:50:56.869Z,8.70
2023-04-24T09:51:56.859Z,10.20
2023-04-24T09:52:56.856Z,10.90
2023-04-24T09:53:56.858Z,8.50
2023-04-24T09:54:56.820Z,8.50
2023-04-24T09:55:56.820Z,9.20
2023-04-24T09:56:56.806Z,7.80
2023-04-24T09:57:56.796Z,10.00
2023-04-24T09:58:56.802Z,9.50
2023-04-24T09:59:56.769Z,11.20
2023-04-24T10:00:56.759Z,7.90
2023-04-24T10:01:56.779Z,8.50
2023-04-24T10:02:56.875Z,7.60
2023-04-24T10:03:56.746Z,7.20
2023-04-24T10:04:56.844Z,8.40
2023-04-24T10:05:56.715Z,7.60
2023-04-24T10:06:56.690Z,7.70
2023-04-24T10:07:56.684Z,6.90
2023-04-24T10:08:56.685Z,7.40
2023-04-24T10:09:56.665Z,7.30
2023-04-24T10:10:56.648Z,6.80
2023-04-24T10:11:56.631Z,6.80
2023-04-24T10:12:56.627Z,6.80
2023-04-24T10:13:56.637Z,7.50
2023-04-24T10:14:56.601Z,7.30
2023-04-24T10:15:56.606Z,7.40
2023-04-24T10:16:56.599Z,6.20
2023-04-24T10:17:56.591Z,7.70
2023-04-24T10:18:56.573Z,6.90
2023-04-24T10:19:56.552Z,7.60
2023-04-24T10:20:56.538Z,6.50
2023-04-24T10:21:56.516Z,6.20
2023-04-24T10:22:56.513Z,6.40
2023-04-24T10:23:56.557Z,7.50
2023-04-24T10:24:56.504Z,6.90
2023-04-24T10:25:56.478Z,6.70
2023-04-24T10:26:56.473Z,7.90
2023-04-24T10:27:56.447Z,7.20
2023-04-24T10:28:56.478Z,5.80
2023-04-24T10:29:56.428Z,7.40
2023-04-24T10:30:56.432Z,5.90
2023-04-24T10:31:56.472Z,6.40
2023-04-24T10:32:56.443Z,6.10
2023-04-24T10:33:56.384Z,7.30
2023-04-24T10:34:56.520Z,7.50
2023-04-24T10:35:56.352Z,8.00
2023-04-24T10:36:57.925Z,7.90
2023-04-24T10:37:56.344Z,9.50
2023-04-24T10:38:56.329Z,10.60
2023-04-24T10:39:56.319Z,11.50
2023-04-24T10:40:56.341Z,12.90
2023-04-24T10:41:56.288Z,11.70
2023-04-24T10:42:58.585Z,9.60
2023-04-24T10:43:56.414Z,10.60
2023-04-24T10:44:56.469Z,10.90
2023-04-24T10:45:56.252Z,13.70
2023-04-24T10:46:56.335Z,12.00
2023-04-24T10:47:56.256Z,11.80
2023-04-24T10:48:56.232Z,11.40
2023-04-24T10:49:56.195Z,13.40
2023-04-24T10:50:56.197Z,11.90
2023-04-24T10:51:56.174Z,11.80
2023-04-24T10:52:56.164Z,12.90
2023-04-24T10:53:56.191Z,11.20
2023-04-24T10:54:56.359Z,10.40
2023-04-24T10:55:56.128Z,12.30
2023-04-24T10:56:56.152Z,12.60
2023-04-24T10:57:56.111Z,10.50
2023-04-24T10:58:56.126Z,9.80
2023-04-24T10:59:56.347Z,9.70
2023-04-24T11:00:56.158Z,11.10
2023-04-24T11:01:56.058Z,12.20
2023-04-24T11:02:56.159Z,13.10
2023-04-24T11:03:56.126Z,10.90
2023-04-24T11:04:56.279Z,12.60
2023-04-24T11:05:56.033Z,12.70
2023-04-24T11:06:56.006Z,11.80
2023-04-24T11:07:55.997Z,11.90
2023-04-24T11:08:56.004Z,12.20
2023-04-24T11:09:55.966Z,13.30
2023-04-24T11:10:55.980Z,10.20
2023-04-24T11:11:55.962Z,11.30
2023-04-24T11:12:55.938Z,12.70
2023-04-24T11:13:55.985Z,14.80
2023-04-24T11:14:55.949Z,13.50
2023-04-24T11:15:55.901Z,12.00
2023-04-24T11:16:56.182Z,10.90
2023-04-24T11:17:55.919Z,10.00
2023-04-24T11:18:55.882Z,10.70
2023-04-24T11:19:56.301Z,11.70
2023-04-24T11:20:55.859Z,11.20
2023-04-24T11:21:55.834Z,12.70
2023-04-24T11:22:56.135Z,11.60
2023-04-24T11:23:55.841Z,10.20
2023-04-24T11:24:56.083Z,13.20
2023-04-24T11:25:55.779Z,11.00
2023-04-24T11:26:55.781Z,15.20
2023-04-24T11:27:55.755Z,9.70
2023-04-24T11:28:55.768Z,10.80
2023-04-24T11:29:55.887Z,11.10
2023-04-24T11:30:55.755Z,10.70
2023-04-24T11:31:55.733Z,10.90
2023-04-24T11:32:55.825Z,7.80
2023-04-24T11:33:55.708Z,9.60
2023-04-24T11:34:55.690Z,11.30
2023-04-24T11:35:55.671Z,8.40
2023-04-24T11:36:55.659Z,9.00
2023-04-24T11:38:55.654Z,8.40
2023-04-24T11:39:55.666Z,8.40
2023-04-24T11:40:55.629Z,9.70
2023-04-24T11:41:55.600Z,7.70
2023-04-24T11:42:55.608Z,6.90
2023-04-24T11:43:56.780Z,7.60
2023-04-24T11:44:55.567Z,8.60
2023-04-24T11:45:55.564Z,6.50
2023-04-24T11:46:55.546Z,7.30
2023-04-24T11:47:55.613Z,6.60
2023-04-24T11:48:55.560Z,7.00
2023-04-24T11:49:55.523Z,8.40
2023-04-24T11:50:55.513Z,7.90
2023-04-24T11:51:58.028Z,7.60
2023-04-24T11:52:55.485Z,8.50
2023-04-24T11:54:03.496Z,7.10
2023-04-24T11:54:55.460Z,7.70
2023-04-24T11:55:55.438Z,9.90
2023-04-24T11:56:55.505Z,11.00
2023-04-24T11:57:55.430Z,8.90
2023-04-24T11:58:55.461Z,8.30
2023-04-24T11:59:55.391Z,11.00
2023-04-24T12:00:55.403Z,12.40
2023-04-24T12:01:55.384Z,11.60
2023-04-24T12:02:55.521Z,12.60
2023-04-24T12:03:55.530Z,12.80
2023-04-24T12:04:55.681Z,14.40
2023-04-24T12:05:55.357Z,13.60
2023-04-24T12:06:55.325Z,11.60
2023-04-24T12:07:55.349Z,12.20
2023-04-24T12:08:57.754Z,14.60
2023-04-24T12:09:55.282Z,13.30
2023-04-24T12:10:55.285Z,12.70
2023-04-24T12:11:55.258Z,15.20
2023-04-24T12:12:55.248Z,12.70
2023-04-24T12:13:55.236Z,13.60
2023-04-24T12:14:55.260Z,15.90
2023-04-24T12:15:55.270Z,14.80
2023-04-24T12:16:55.217Z,14.70
2023-04-24T12:17:55.311Z,16.80
2023-04-24T12:18:55.185Z,15.10
2023-04-24T12:19:55.190Z,15.00
2023-04-24T12:21:01.240Z,15.50
2023-04-24T12:21:55.151Z,19.30
2023-04-24T12:22:55.137Z,16.90
2023-04-24T12:23:55.126Z,19.60
2023-04-24T12:24:55.157Z,19.30
2023-04-24T12:25:55.117Z,17.60
2023-04-24T12:26:55.098Z,17.60
2023-04-24T12:27:55.073Z,17.40
2023-04-24T12:28:55.075Z,16.30
2023-04-24T12:29:55.052Z,17.80
2023-04-24T12:30:55.096Z,15.00
2023-04-24T12:31:55.073Z,15.80
2023-04-24T12:32:55.036Z,16.60
2023-04-24T12:33:55.026Z,14.60
2023-04-24T12:34:55.003Z,13.30
2023-04-24T12:35:55.037Z,14.20
2023-04-24T12:36:54.985Z,14.40
2023-04-24T12:37:54.968Z,17.00
2023-04-24T12:38:54.955Z,16.10
2023-04-24T12:39:54.943Z,14.40
2023-04-24T12:40:54.954Z,14.80
2023-04-24T12:41:54.920Z,13.20
2023-04-24T12:42:56.245Z,14.30
2023-04-24T12:43:54.916Z,13.00
2023-04-24T12:44:54.901Z,14.00
2023-04-24T12:45:54.902Z,13.50
2023-04-24T12:46:54.880Z,14.50
2023-04-24T12:47:54.876Z,15.30
2023-04-24T12:48:54.838Z,12.80
2023-04-24T12:49:54.844Z,16.60
2023-04-24T12:50:54.847Z,13.10
2023-04-24T12:51:54.806Z,14.00
2023-04-24T12:52:54.806Z,14.00
2023-04-24T12:53:56.524Z,13.60
2023-04-24T12:54:54.791Z,13.80
2023-04-24T12:55:54.784Z,18.00
2023-04-24T12:56:54.754Z,13.60
2023-04-24T12:57:54.741Z,17.10
2023-04-24T12:58:54.728Z,11.70
2023-04-24T12:59:54.717Z,12.80
2023-04-24T13:00:54.777Z,16.40
2023-04-24T13:01:54.720Z,12.10